Historyczne dane pomiarowe

Dodano dane terminowe – wersja testowa.

Dane z okresu 1951-2019

Wersja bazy: 1.34 [2019-03-16, lista zmian], aktualizacja planowana na 2019-04-15

Dane meteo z obszaru Polski uzyskane na podstawie danych udostępnionych przez Instytut Meteorologii i Gospodarki Wodnej – Państwowy Instytut Badawczy.

 

Wybierz Datę:    

       

TemperaturaWilgotnośćZachmurzenieWiatrCiśnienieWidzialnośćZjawiska
 Data    tng td wb rh cc ccl cl cm ch dir g1 g2 mslp ppp      
1999-07-05 00:00:00 18.0--- 16.3 16.990wxwxwx0wx--1013.8 992.0 0.0---wx
1999-07-05 01:00:00 17.1--- 16.1 16.594wxwxwx0wx--1014.3 992.4----wx
1999-07-05 02:00:00 16.0--- 15.2 15.595wxwxwx0wx--1014.4 992.4----wx
1999-07-05 03:00:00 16.9--- 16.3 16.596wxwxwxwx0wx--1014.6 992.7----wx
1999-07-05 04:00:00 17.2--- 16.1 16.593wxwxwx0wx--1014.9 993.0----wx
1999-07-05 05:00:00 20.6--- 16.7 18.178wxwxwx0wx--1014.8 993.1----wx
1999-07-05 06:00:00 23.0--- 16.7 18.968wxwx0wx--1014.9 993.4 0.0---wx
1999-07-05 07:00:00 24.0--- 16.6 19.263wxwx0wx--1014.9 993.5----wx
1999-07-05 08:00:00 25.4--- 17.2 20.061wxwx0wx--1015.1 993.8----wx
1999-07-05 09:00:00 26.6--- 17.2 20.456wxwx0wx--1015.0 993.8----wx
1999-07-05 10:00:00 27.6--- 17.0 20.653wxwx0wx--1015.0 993.8----wx
1999-07-05 11:00:00 28.6--- 18.2 21.653wxwx0wx--1014.8 993.7----wx
1999-07-05 12:00:00 29.4--- 18.8 22.253wxwx0wx--1014.5 993.5 0.0---wx
1999-07-05 13:00:00 30.6--- 19.6 23.052wxwx0wx--1014.1 993.2----wx
1999-07-05 14:00:00 31.2--- 19.6 23.250wxwx0wx--1013.9 993.0----wx
1999-07-05 15:00:00 31.4--- 19.5 23.249wxwx1wx--1013.5 992.6----wx
1999-07-05 16:00:00 30.4--- 19.7 23.053wxwx2wx--1012.9 992.0----wx
1999-07-05 17:00:00 29.6--- 19.1 22.453wxwxwx2wx--1012.6 991.6----wx
1999-07-05 18:00:00 28.4--- 19.3 22.258wxwxwx2wx--1012.5 991.4 0.0---wx
1999-07-05 19:00:00 26.0--- 19.6 21.668wxwxwx1wx--1012.6 991.4----wx
1999-07-05 20:00:00 24.0--- 18.9 20.673wxwxwx1wx--1013.2 991.8----wx
1999-07-05 21:00:00 23.0--- 19.4 20.680wxwxwx0wx--1013.3 991.8----wx
1999-07-05 22:00:00 22.2--- 18.9 20.082wxwx0wx--1013.2 991.7----wx
1999-07-05 23:00:00 21.4--- 18.7 19.685wxwx0wx--1013.2 991.6----wx

 

Źródłem pochodzenia danych jest Instytut Meteorologii i Gospodarki Wodnej – Państwowy Instytut Badawczy. Dane Instytutu Meteorologii i Gospodarki Wodnej – Państwowego Instytutu Badawczego zostały przetworzone.

Dane źródłowe można odnaleźć na stronie https://dane.imgw.pl